sensor_id;sensor_type;location;lat;lon;timestamp;temperature;humidity
6520;DHT22;3293;51.690;5.982;2024-03-25T00:04:53;4.80;99.90
6520;DHT22;3293;51.690;5.982;2024-03-25T00:09:53;4.70;99.90
6520;DHT22;3293;51.690;5.982;2024-03-25T00:14:54;4.60;99.90
6520;DHT22;3293;51.690;5.982;2024-03-25T00:19:54;4.60;99.90
6520;DHT22;3293;51.690;5.982;2024-03-25T00:24:54;4.50;99.90
6520;DHT22;3293;51.690;5.982;2024-03-25T00:29:54;4.40;99.90
6520;DHT22;3293;51.690;5.982;2024-03-25T00:34:54;4.40;99.90
6520;DHT22;3293;51.690;5.982;2024-03-25T00:39:54;4.40;99.90
6520;DHT22;3293;51.690;5.982;2024-03-25T00:44:54;4.40;99.90
6520;DHT22;3293;51.690;5.982;2024-03-25T00:49:54;4.40;99.90
6520;DHT22;3293;51.690;5.982;2024-03-25T00:54:54;4.30;99.90
6520;DHT22;3293;51.690;5.982;2024-03-25T00:59:54;4.20;99.90
6520;DHT22;3293;51.690;5.982;2024-03-25T01:04:54;4.10;99.90
6520;DHT22;3293;51.690;5.982;2024-03-25T01:10:05;4.10;99.90
6520;DHT22;3293;51.690;5.982;2024-03-25T01:15:06;4.10;99.90
6520;DHT22;3293;51.690;5.982;2024-03-25T01:20:07;4.10;99.90
6520;DHT22;3293;51.690;5.982;2024-03-25T01:25:08;4.00;99.90
6520;DHT22;3293;51.690;5.982;2024-03-25T01:30:08;4.10;99.90
6520;DHT22;3293;51.690;5.982;2024-03-25T01:35:09;4.00;99.90
6520;DHT22;3293;51.690;5.982;2024-03-25T01:40:09;4.00;99.90
6520;DHT22;3293;51.690;5.982;2024-03-25T01:45:10;4.00;99.90
6520;DHT22;3293;51.690;5.982;2024-03-25T01:50:10;4.00;99.90
6520;DHT22;3293;51.690;5.982;2024-03-25T01:55:15;3.90;99.90
6520;DHT22;3293;51.690;5.982;2024-03-25T02:00:17;3.90;99.90
6520;DHT22;3293;51.690;5.982;2024-03-25T02:05:18;3.90;99.90
6520;DHT22;3293;51.690;5.982;2024-03-25T02:10:19;3.90;99.90
6520;DHT22;3293;51.690;5.982;2024-03-25T02:15:20;4.00;99.90
6520;DHT22;3293;51.690;5.982;2024-03-25T02:20:20;4.10;99.90
6520;DHT22;3293;51.690;5.982;2024-03-25T02:25:21;4.20;99.90
6520;DHT22;3293;51.690;5.982;2024-03-25T02:30:21;4.20;99.90
6520;DHT22;3293;51.690;5.982;2024-03-25T02:35:22;4.30;99.90
6520;DHT22;3293;51.690;5.982;2024-03-25T02:40:24;4.30;99.90
6520;DHT22;3293;51.690;5.982;2024-03-25T02:45:25;4.30;99.90
6520;DHT22;3293;51.690;5.982;2024-03-25T02:50:25;4.30;99.90
6520;DHT22;3293;51.690;5.982;2024-03-25T02:55:25;4.30;99.90
6520;DHT22;3293;51.690;5.982;2024-03-25T03:00:25;4.30;99.90
6520;DHT22;3293;51.690;5.982;2024-03-25T03:05:25;4.10;99.90
6520;DHT22;3293;51.690;5.982;2024-03-25T03:10:25;4.00;99.90
6520;DHT22;3293;51.690;5.982;2024-03-25T03:15:25;3.90;99.90
6520;DHT22;3293;51.690;5.982;2024-03-25T03:20:25;3.80;99.90
6520;DHT22;3293;51.690;5.982;2024-03-25T03:25:25;3.60;99.90
6520;DHT22;3293;51.690;5.982;2024-03-25T03:30:25;3.60;99.90
6520;DHT22;3293;51.690;5.982;2024-03-25T03:35:25;3.50;99.90
6520;DHT22;3293;51.690;5.982;2024-03-25T03:40:25;3.50;99.90
6520;DHT22;3293;51.690;5.982;2024-03-25T03:45:26;3.60;99.90
6520;DHT22;3293;51.690;5.982;2024-03-25T03:50:32;3.70;99.90
6520;DHT22;3293;51.690;5.982;2024-03-25T03:55:31;3.70;99.90
6520;DHT22;3293;51.690;5.982;2024-03-25T04:00:35;3.60;99.90
6520;DHT22;3293;51.690;5.982;2024-03-25T04:05:35;3.40;99.90
6520;DHT22;3293;51.690;5.982;2024-03-25T04:10:35;3.30;99.90
6520;DHT22;3293;51.690;5.982;2024-03-25T04:15:36;3.30;99.90
6520;DHT22;3293;51.690;5.982;2024-03-25T04:20:41;3.20;99.90
6520;DHT22;3293;51.690;5.982;2024-03-25T04:25:41;3.10;99.90
6520;DHT22;3293;51.690;5.982;2024-03-25T04:30:41;3.10;99.90
6520;DHT22;3293;51.690;5.982;2024-03-25T04:35:41;3.00;99.90
6520;DHT22;3293;51.690;5.982;2024-03-25T04:40:42;3.10;99.90
6520;DHT22;3293;51.690;5.982;2024-03-25T04:45:43;3.10;99.90
6520;DHT22;3293;51.690;5.982;2024-03-25T04:50:43;3.00;99.90
6520;DHT22;3293;51.690;5.982;2024-03-25T04:55:43;3.00;99.90
6520;DHT22;3293;51.690;5.982;2024-03-25T05:00:43;3.10;99.90
6520;DHT22;3293;51.690;5.982;2024-03-25T05:05:43;3.20;99.90
6520;DHT22;3293;51.690;5.982;2024-03-25T05:10:43;3.10;99.90
6520;DHT22;3293;51.690;5.982;2024-03-25T05:15:50;3.10;99.90
6520;DHT22;3293;51.690;5.982;2024-03-25T05:20:50;3.00;99.90
6520;DHT22;3293;51.690;5.982;2024-03-25T05:25:50;2.90;99.90
6520;DHT22;3293;51.690;5.982;2024-03-25T05:30:49;2.90;99.90
6520;DHT22;3293;51.690;5.982;2024-03-25T05:35:49;2.80;99.90
6520;DHT22;3293;51.690;5.982;2024-03-25T05:40:49;2.70;99.90
6520;DHT22;3293;51.690;5.982;2024-03-25T05:45:53;2.70;99.90
6520;DHT22;3293;51.690;5.982;2024-03-25T05:51:09;2.70;99.90
6520;DHT22;3293;51.690;5.982;2024-03-25T05:56:09;2.70;99.90
6520;DHT22;3293;51.690;5.982;2024-03-25T06:01:08;2.70;99.90
6520;DHT22;3293;51.690;5.982;2024-03-25T06:06:08;2.80;99.90
6520;DHT22;3293;51.690;5.982;2024-03-25T06:11:08;2.80;99.90
6520;DHT22;3293;51.690;5.982;2024-03-25T06:16:08;3.00;99.90
6520;DHT22;3293;51.690;5.982;2024-03-25T06:21:08;3.10;99.90
6520;DHT22;3293;51.690;5.982;2024-03-25T06:26:08;3.20;99.90
6520;DHT22;3293;51.690;5.982;2024-03-25T06:31:08;3.30;99.90
6520;DHT22;3293;51.690;5.982;2024-03-25T06:36:27;3.40;99.90
6520;DHT22;3293;51.690;5.982;2024-03-25T06:41:27;3.70;99.90
6520;DHT22;3293;51.690;5.982;2024-03-25T06:46:27;3.90;99.90
6520;DHT22;3293;51.690;5.982;2024-03-25T06:51:27;4.10;99.90
6520;DHT22;3293;51.690;5.982;2024-03-25T06:56:27;4.20;99.90
6520;DHT22;3293;51.690;5.982;2024-03-25T07:01:27;4.40;99.90
6520;DHT22;3293;51.690;5.982;2024-03-25T07:06:27;5.30;99.90
6520;DHT22;3293;51.690;5.982;2024-03-25T07:11:27;6.90;99.90
6520;DHT22;3293;51.690;5.982;2024-03-25T07:16:27;8.20;99.90
6520;DHT22;3293;51.690;5.982;2024-03-25T07:21:27;9.00;99.90
6520;DHT22;3293;51.690;5.982;2024-03-25T07:26:27;10.10;99.90
6520;DHT22;3293;51.690;5.982;2024-03-25T07:31:29;11.00;99.90
6520;DHT22;3293;51.690;5.982;2024-03-25T07:36:28;11.90;99.90
6520;DHT22;3293;51.690;5.982;2024-03-25T07:41:33;12.80;99.90
6520;DHT22;3293;51.690;5.982;2024-03-25T07:46:33;12.40;99.90
6520;DHT22;3293;51.690;5.982;2024-03-25T07:51:33;12.20;99.90
6520;DHT22;3293;51.690;5.982;2024-03-25T07:56:35;12.20;99.90
6520;DHT22;3293;51.690;5.982;2024-03-25T08:01:36;12.90;99.90
6520;DHT22;3293;51.690;5.982;2024-03-25T08:06:37;13.50;99.90
6520;DHT22;3293;51.690;5.982;2024-03-25T08:11:37;13.30;99.90
6520;DHT22;3293;51.690;5.982;2024-03-25T08:16:38;14.00;99.90
6520;DHT22;3293;51.690;5.982;2024-03-25T08:21:40;14.60;99.90
6520;DHT22;3293;51.690;5.982;2024-03-25T08:26:40;15.10;99.90
6520;DHT22;3293;51.690;5.982;2024-03-25T08:31:40;14.90;99.90
6520;DHT22;3293;51.690;5.982;2024-03-25T08:36:40;14.90;99.90
6520;DHT22;3293;51.690;5.982;2024-03-25T08:41:40;14.30;99.90
6520;DHT22;3293;51.690;5.982;2024-03-25T08:46:40;14.40;99.90
6520;DHT22;3293;51.690;5.982;2024-03-25T08:51:40;14.80;99.90
6520;DHT22;3293;51.690;5.982;2024-03-25T08:56:40;14.30;99.90
6520;DHT22;3293;51.690;5.982;2024-03-25T09:01:40;12.70;99.90
6520;DHT22;3293;51.690;5.982;2024-03-25T09:06:40;12.00;99.90
6520;DHT22;3293;51.690;5.982;2024-03-25T09:11:39;11.30;99.90
6520;DHT22;3293;51.690;5.982;2024-03-25T09:16:39;10.90;99.90
6520;DHT22;3293;51.690;5.982;2024-03-25T09:21:39;10.70;99.90
6520;DHT22;3293;51.690;5.982;2024-03-25T09:26:40;10.90;99.90
6520;DHT22;3293;51.690;5.982;2024-03-25T09:31:43;11.10;99.90
6520;DHT22;3293;51.690;5.982;2024-03-25T09:36:42;11.00;99.90
6520;DHT22;3293;51.690;5.982;2024-03-25T09:41:43;10.80;99.90
6520;DHT22;3293;51.690;5.982;2024-03-25T09:46:43;10.70;99.90
6520;DHT22;3293;51.690;5.982;2024-03-25T09:51:43;10.90;99.90
6520;DHT22;3293;51.690;5.982;2024-03-25T09:56:43;10.90;99.90
6520;DHT22;3293;51.690;5.982;2024-03-25T10:01:43;11.00;99.90
6520;DHT22;3293;51.690;5.982;2024-03-25T10:06:43;11.00;99.90
6520;DHT22;3293;51.690;5.982;2024-03-25T10:11:43;11.00;99.90
6520;DHT22;3293;51.690;5.982;2024-03-25T10:16:43;11.20;99.90
6520;DHT22;3293;51.690;5.982;2024-03-25T10:21:43;11.90;99.90
6520;DHT22;3293;51.690;5.982;2024-03-25T10:26:43;12.10;99.90
6520;DHT22;3293;51.690;5.982;2024-03-25T10:31:44;12.20;99.90
6520;DHT22;3293;51.690;5.982;2024-03-25T10:36:44;12.40;99.90
6520;DHT22;3293;51.690;5.982;2024-03-25T10:41:44;12.70;99.90
6520;DHT22;3293;51.690;5.982;2024-03-25T10:46:48;12.80;99.90
6520;DHT22;3293;51.690;5.982;2024-03-25T10:51:50;12.70;99.90
6520;DHT22;3293;51.690;5.982;2024-03-25T10:56:50;12.80;99.90
6520;DHT22;3293;51.690;5.982;2024-03-25T11:01:51;12.80;99.90
6520;DHT22;3293;51.690;5.982;2024-03-25T11:06:51;12.80;99.90
6520;DHT22;3293;51.690;5.982;2024-03-25T11:11:54;12.90;99.90
6520;DHT22;3293;51.690;5.982;2024-03-25T11:16:55;13.10;99.90
6520;DHT22;3293;51.690;5.982;2024-03-25T11:22:07;13.30;99.90
6520;DHT22;3293;51.690;5.982;2024-03-25T11:27:07;13.40;98.70
6520;DHT22;3293;51.690;5.982;2024-03-25T11:32:10;13.50;95.60
6520;DHT22;3293;51.690;5.982;2024-03-25T11:37:09;13.60;96.60
6520;DHT22;3293;51.690;5.982;2024-03-25T11:42:09;13.60;95.80
6520;DHT22;3293;51.690;5.982;2024-03-25T11:47:10;13.50;95.70
6520;DHT22;3293;51.690;5.982;2024-03-25T11:52:13;13.40;94.30
6520;DHT22;3293;51.690;5.982;2024-03-25T11:57:15;13.10;93.70
6520;DHT22;3293;51.690;5.982;2024-03-25T12:02:16;13.00;93.50
6520;DHT22;3293;51.690;5.982;2024-03-25T12:07:16;13.30;90.10
6520;DHT22;3293;51.690;5.982;2024-03-25T12:12:16;13.50;89.30
6520;DHT22;3293;51.690;5.982;2024-03-25T12:17:18;13.50;89.50
6520;DHT22;3293;51.690;5.982;2024-03-25T12:22:19;13.50;89.70
6520;DHT22;3293;51.690;5.982;2024-03-25T12:27:19;13.40;91.30
6520;DHT22;3293;51.690;5.982;2024-03-25T12:32:19;13.10;91.10
6520;DHT22;3293;51.690;5.982;2024-03-25T12:37:19;13.20;90.40
6520;DHT22;3293;51.690;5.982;2024-03-25T12:42:19;13.40;87.70
6520;DHT22;3293;51.690;5.982;2024-03-25T12:47:20;13.50;78.10
6520;DHT22;3293;51.690;5.982;2024-03-25T12:52:20;13.50;78.30
6520;DHT22;3293;51.690;5.982;2024-03-25T12:57:21;13.40;82.90
6520;DHT22;3293;51.690;5.982;2024-03-25T13:02:20;13.40;80.90
6520;DHT22;3293;51.690;5.982;2024-03-25T13:07:20;13.40;76.90
6520;DHT22;3293;51.690;5.982;2024-03-25T13:12:20;13.30;79.80
6520;DHT22;3293;51.690;5.982;2024-03-25T13:17:21;13.50;77.20
6520;DHT22;3293;51.690;5.982;2024-03-25T13:22:21;13.60;77.60
6520;DHT22;3293;51.690;5.982;2024-03-25T13:27:21;13.50;75.60
6520;DHT22;3293;51.690;5.982;2024-03-25T13:32:21;13.60;77.00
6520;DHT22;3293;51.690;5.982;2024-03-25T13:37:21;13.90;71.50
6520;DHT22;3293;51.690;5.982;2024-03-25T13:42:23;14.00;70.40
6520;DHT22;3293;51.690;5.982;2024-03-25T13:47:23;14.00;70.80
6520;DHT22;3293;51.690;5.982;2024-03-25T13:52:23;13.80;64.00
6520;DHT22;3293;51.690;5.982;2024-03-25T13:57:23;13.60;66.60
6520;DHT22;3293;51.690;5.982;2024-03-25T14:02:24;13.60;67.40
6520;DHT22;3293;51.690;5.982;2024-03-25T14:07:23;13.60;63.70
6520;DHT22;3293;51.690;5.982;2024-03-25T14:12:23;13.30;60.20
6520;DHT22;3293;51.690;5.982;2024-03-25T14:17:23;13.20;65.20
6520;DHT22;3293;51.690;5.982;2024-03-25T14:22:23;13.10;62.90
6520;DHT22;3293;51.690;5.982;2024-03-25T14:27:24;13.00;62.60
6520;DHT22;3293;51.690;5.982;2024-03-25T14:32:24;13.00;62.10
6520;DHT22;3293;51.690;5.982;2024-03-25T14:37:24;13.00;68.50
6520;DHT22;3293;51.690;5.982;2024-03-25T14:42:24;12.70;69.80
6520;DHT22;3293;51.690;5.982;2024-03-25T14:47:24;12.60;66.60
6520;DHT22;3293;51.690;5.982;2024-03-25T14:52:24;12.50;60.50
6520;DHT22;3293;51.690;5.982;2024-03-25T14:57:23;12.70;69.40
6520;DHT22;3293;51.690;5.982;2024-03-25T15:02:23;12.70;67.50
6520;DHT22;3293;51.690;5.982;2024-03-25T15:07:26;12.70;70.70
6520;DHT22;3293;51.690;5.982;2024-03-25T15:12:26;12.70;69.90
6520;DHT22;3293;51.690;5.982;2024-03-25T15:17:26;12.80;72.60
6520;DHT22;3293;51.690;5.982;2024-03-25T15:22:26;12.90;69.60
6520;DHT22;3293;51.690;5.982;2024-03-25T15:27:27;12.80;70.90
6520;DHT22;3293;51.690;5.982;2024-03-25T15:32:27;12.60;69.90
6520;DHT22;3293;51.690;5.982;2024-03-25T15:37:27;12.30;70.40
6520;DHT22;3293;51.690;5.982;2024-03-25T15:42:27;12.10;70.90
6520;DHT22;3293;51.690;5.982;2024-03-25T15:47:27;11.90;72.50
6520;DHT22;3293;51.690;5.982;2024-03-25T15:52:26;11.70;74.00
6520;DHT22;3293;51.690;5.982;2024-03-25T15:57:26;11.60;70.70
6520;DHT22;3293;51.690;5.982;2024-03-25T16:02:26;11.60;71.30
6520;DHT22;3293;51.690;5.982;2024-03-25T16:07:26;11.60;71.50
6520;DHT22;3293;51.690;5.982;2024-03-25T16:12:27;11.50;73.00
6520;DHT22;3293;51.690;5.982;2024-03-25T16:17:27;11.50;69.30
6520;DHT22;3293;51.690;5.982;2024-03-25T16:22:27;11.40;69.10
6520;DHT22;3293;51.690;5.982;2024-03-25T16:27:28;11.40;68.20
6520;DHT22;3293;51.690;5.982;2024-03-25T16:32:35;11.40;69.30
6520;DHT22;3293;51.690;5.982;2024-03-25T16:37:35;11.30;69.00
6520;DHT22;3293;51.690;5.982;2024-03-25T16:42:36;11.30;69.40
6520;DHT22;3293;51.690;5.982;2024-03-25T16:47:36;11.20;68.80
6520;DHT22;3293;51.690;5.982;2024-03-25T16:52:36;11.10;69.60
6520;DHT22;3293;51.690;5.982;2024-03-25T16:57:36;10.90;71.00
6520;DHT22;3293;51.690;5.982;2024-03-25T17:02:36;10.80;72.10
6520;DHT22;3293;51.690;5.982;2024-03-25T17:07:36;10.70;71.30
6520;DHT22;3293;51.690;5.982;2024-03-25T17:12:36;10.60;73.20
6520;DHT22;3293;51.690;5.982;2024-03-25T17:17:39;10.50;72.80
6520;DHT22;3293;51.690;5.982;2024-03-25T17:22:39;10.40;72.80
6520;DHT22;3293;51.690;5.982;2024-03-25T17:27:40;10.30;75.00
6520;DHT22;3293;51.690;5.982;2024-03-25T17:32:40;10.30;74.80
6520;DHT22;3293;51.690;5.982;2024-03-25T17:37:40;10.20;75.80
6520;DHT22;3293;51.690;5.982;2024-03-25T17:42:40;10.00;76.00
6520;DHT22;3293;51.690;5.982;2024-03-25T17:47:41;10.00;75.60
6520;DHT22;3293;51.690;5.982;2024-03-25T17:52:41;9.90;78.00
6520;DHT22;3293;51.690;5.982;2024-03-25T17:57:40;9.70;77.80
6520;DHT22;3293;51.690;5.982;2024-03-25T18:02:40;9.60;77.20
6520;DHT22;3293;51.690;5.982;2024-03-25T18:07:40;9.50;78.40
6520;DHT22;3293;51.690;5.982;2024-03-25T18:12:43;9.30;79.50
6520;DHT22;3293;51.690;5.982;2024-03-25T18:17:43;9.20;78.40
6520;DHT22;3293;51.690;5.982;2024-03-25T18:22:43;9.20;77.90
6520;DHT22;3293;51.690;5.982;2024-03-25T18:27:43;9.10;79.00
6520;DHT22;3293;51.690;5.982;2024-03-25T18:32:43;9.00;81.20
6520;DHT22;3293;51.690;5.982;2024-03-25T18:37:45;8.90;81.90
6520;DHT22;3293;51.690;5.982;2024-03-25T18:42:45;8.80;83.00
6520;DHT22;3293;51.690;5.982;2024-03-25T18:47:45;8.80;84.90
6520;DHT22;3293;51.690;5.982;2024-03-25T18:52:45;8.70;88.60
6520;DHT22;3293;51.690;5.982;2024-03-25T18:57:45;8.60;91.10
6520;DHT22;3293;51.690;5.982;2024-03-25T19:02:45;8.40;92.70
6520;DHT22;3293;51.690;5.982;2024-03-25T19:07:44;8.40;94.50
6520;DHT22;3293;51.690;5.982;2024-03-25T19:12:44;8.40;95.10
6520;DHT22;3293;51.690;5.982;2024-03-25T19:17:44;8.30;96.20
6520;DHT22;3293;51.690;5.982;2024-03-25T19:22:45;8.30;96.20
6520;DHT22;3293;51.690;5.982;2024-03-25T19:27:45;8.30;96.80
6520;DHT22;3293;51.690;5.982;2024-03-25T19:32:45;8.10;98.10
6520;DHT22;3293;51.690;5.982;2024-03-25T19:37:45;8.10;98.10
6520;DHT22;3293;51.690;5.982;2024-03-25T19:42:46;8.00;98.90
6520;DHT22;3293;51.690;5.982;2024-03-25T19:47:45;7.80;99.90
6520;DHT22;3293;51.690;5.982;2024-03-25T19:52:45;7.80;99.90
6520;DHT22;3293;51.690;5.982;2024-03-25T19:57:45;7.80;99.90
6520;DHT22;3293;51.690;5.982;2024-03-25T20:02:46;7.70;99.90
6520;DHT22;3293;51.690;5.982;2024-03-25T20:07:46;7.70;99.90
6520;DHT22;3293;51.690;5.982;2024-03-25T20:12:46;7.80;99.90
6520;DHT22;3293;51.690;5.982;2024-03-25T20:17:47;7.70;99.90
6520;DHT22;3293;51.690;5.982;2024-03-25T20:22:47;7.70;99.90
6520;DHT22;3293;51.690;5.982;2024-03-25T20:27:46;7.70;99.90
6520;DHT22;3293;51.690;5.982;2024-03-25T20:32:46;7.70;99.90
6520;DHT22;3293;51.690;5.982;2024-03-25T20:37:46;7.60;99.90
6520;DHT22;3293;51.690;5.982;2024-03-25T20:42:46;7.50;99.90
6520;DHT22;3293;51.690;5.982;2024-03-25T20:47:47;7.50;99.90
6520;DHT22;3293;51.690;5.982;2024-03-25T20:52:47;7.60;99.90
6520;DHT22;3293;51.690;5.982;2024-03-25T20:57:48;7.50;99.90
6520;DHT22;3293;51.690;5.982;2024-03-25T21:02:48;7.50;99.90
6520;DHT22;3293;51.690;5.982;2024-03-25T21:07:48;7.60;99.90
6520;DHT22;3293;51.690;5.982;2024-03-25T21:12:48;7.50;99.90
6520;DHT22;3293;51.690;5.982;2024-03-25T21:17:48;7.50;99.90
6520;DHT22;3293;51.690;5.982;2024-03-25T21:22:47;7.40;99.90
6520;DHT22;3293;51.690;5.982;2024-03-25T21:27:48;7.30;99.90
6520;DHT22;3293;51.690;5.982;2024-03-25T21:32:48;7.30;99.90
6520;DHT22;3293;51.690;5.982;2024-03-25T21:37:47;7.30;99.90
6520;DHT22;3293;51.690;5.982;2024-03-25T21:42:47;7.20;99.90
6520;DHT22;3293;51.690;5.982;2024-03-25T21:47:47;7.20;99.90
6520;DHT22;3293;51.690;5.982;2024-03-25T21:52:47;7.10;99.90
6520;DHT22;3293;51.690;5.982;2024-03-25T21:57:48;7.10;99.90
6520;DHT22;3293;51.690;5.982;2024-03-25T22:02:49;7.10;99.90
6520;DHT22;3293;51.690;5.982;2024-03-25T22:07:49;7.00;99.90
6520;DHT22;3293;51.690;5.982;2024-03-25T22:12:49;6.90;99.90
6520;DHT22;3293;51.690;5.982;2024-03-25T22:17:49;6.90;99.90
6520;DHT22;3293;51.690;5.982;2024-03-25T22:22:49;6.90;99.90
6520;DHT22;3293;51.690;5.982;2024-03-25T22:27:53;6.80;99.90
6520;DHT22;3293;51.690;5.982;2024-03-25T22:32:52;6.70;99.90
6520;DHT22;3293;51.690;5.982;2024-03-25T22:37:53;6.60;99.90
6520;DHT22;3293;51.690;5.982;2024-03-25T22:42:53;6.60;99.90
6520;DHT22;3293;51.690;5.982;2024-03-25T22:47:54;6.60;99.90
6520;DHT22;3293;51.690;5.982;2024-03-25T22:52:54;6.60;99.90
6520;DHT22;3293;51.690;5.982;2024-03-25T22:57:54;6.50;99.90
6520;DHT22;3293;51.690;5.982;2024-03-25T23:02:54;6.50;99.90
6520;DHT22;3293;51.690;5.982;2024-03-25T23:07:53;6.50;99.90
6520;DHT22;3293;51.690;5.982;2024-03-25T23:12:53;6.40;99.90
6520;DHT22;3293;51.690;5.982;2024-03-25T23:17:53;6.40;99.90
6520;DHT22;3293;51.690;5.982;2024-03-25T23:22:54;6.40;99.90
6520;DHT22;3293;51.690;5.982;2024-03-25T23:27:54;6.40;99.90
6520;DHT22;3293;51.690;5.982;2024-03-25T23:32:56;6.40;99.90
6520;DHT22;3293;51.690;5.982;2024-03-25T23:37:56;6.40;99.90
6520;DHT22;3293;51.690;5.982;2024-03-25T23:42:56;6.50;99.90
6520;DHT22;3293;51.690;5.982;2024-03-25T23:47:56;6.50;99.90
6520;DHT22;3293;51.690;5.982;2024-03-25T23:52:57;6.40;99.90
6520;DHT22;3293;51.690;5.982;2024-03-25T23:57:57;6.40;99.90
